createdAt,value
2022-08-17T00:05:03.971Z,5.00
2022-08-17T00:08:57.935Z,4.60
2022-08-17T00:12:42.907Z,4.60
2022-08-17T00:16:18.378Z,5.00
2022-08-17T00:20:12.256Z,5.10
2022-08-17T00:43:24.279Z,4.70
2022-08-17T00:47:17.275Z,4.20
2022-08-17T00:51:10.033Z,4.70
2022-08-17T00:55:07.549Z,5.10
2022-08-17T00:58:50.693Z,6.10
2022-08-17T01:02:43.187Z,5.70
2022-08-17T01:22:17.586Z,6.30
2022-08-17T01:26:01.929Z,5.00
2022-08-17T01:29:56.655Z,5.10
2022-08-17T01:33:51.219Z,5.40
2022-08-17T01:37:43.598Z,5.40
2022-08-17T01:41:29.347Z,5.10
2022-08-17T01:45:23.102Z,5.60
2022-08-17T02:12:38.443Z,5.90
2022-08-17T02:16:36.636Z,5.80
2022-08-17T02:20:42.140Z,5.60
2022-08-17T02:24:58.209Z,6.40
2022-08-17T02:28:46.825Z,5.30
2022-08-17T03:10:37.192Z,5.60
2022-08-17T03:14:30.955Z,6.00
2022-08-17T03:18:24.932Z,5.60
2022-08-17T03:22:35.548Z,5.80
2022-08-17T03:42:02.991Z,7.50
2022-08-17T03:45:47.118Z,7.30
2022-08-17T03:49:36.429Z,7.10
2022-08-17T03:53:25.275Z,6.70
2022-08-17T03:57:19.817Z,6.90
2022-08-17T04:20:46.317Z,7.00
2022-08-17T04:24:39.040Z,7.20
2022-08-17T04:28:31.155Z,6.90
2022-08-17T04:55:57.485Z,7.00
2022-08-17T04:59:47.891Z,7.70
2022-08-17T05:03:38.398Z,7.00
2022-08-17T05:07:31.610Z,7.00
2022-08-17T05:26:54.096Z,8.90
2022-08-17T05:30:49.249Z,8.90
2022-08-17T05:34:41.074Z,8.50
2022-08-17T05:38:33.879Z,8.30
2022-08-17T05:42:26.961Z,8.80
2022-08-17T06:10:15.033Z,8.40
2022-08-17T06:14:08.219Z,9.80
2022-08-17T06:18:03.715Z,10.30
2022-08-17T06:21:55.979Z,10.50
2022-08-17T06:25:32.060Z,9.60
2022-08-17T06:29:31.440Z,8.10
2022-08-17T06:33:22.823Z,8.60
2022-08-17T06:37:15.302Z,7.50
2022-08-17T06:41:06.377Z,8.40
2022-08-17T06:48:52.710Z,8.30
2022-08-17T06:52:13.286Z,8.10
2022-08-17T06:56:08.964Z,8.40
2022-08-17T06:59:00.693Z,7.50
2022-08-17T07:03:02.377Z,6.70
2022-08-17T07:06:32.579Z,6.20
2022-08-17T07:09:37.489Z,7.50
2022-08-17T07:12:45.631Z,7.50
2022-08-17T07:15:56.390Z,7.60
2022-08-17T07:18:41.069Z,7.70
2022-08-17T07:21:55.393Z,6.90
2022-08-17T07:24:50.170Z,7.40
2022-08-17T07:27:45.678Z,7.30
2022-08-17T07:31:14.994Z,7.30
2022-08-17T07:34:19.434Z,6.80
2022-08-17T07:37:45.179Z,7.10
2022-08-17T07:40:43.464Z,6.80
2022-08-17T07:43:21.892Z,7.30
2022-08-17T07:46:37.051Z,6.80
2022-08-17T07:49:29.011Z,7.20
2022-08-17T07:53:22.578Z,6.70
2022-08-17T07:56:38.584Z,5.70
2022-08-17T07:59:35.910Z,5.90
2022-08-17T08:02:40.885Z,5.70
2022-08-17T08:05:49.990Z,5.20
2022-08-17T08:08:52.496Z,6.40
2022-08-17T08:12:02.385Z,6.90
2022-08-17T08:14:54.999Z,6.50
2022-08-17T08:17:47.001Z,6.80
2022-08-17T08:20:52.595Z,8.90
2022-08-17T08:23:40.009Z,8.40
2022-08-17T08:26:55.860Z,8.00
2022-08-17T08:29:48.372Z,8.30
2022-08-17T08:32:43.757Z,8.00
2022-08-17T08:35:58.410Z,8.00
2022-08-17T08:38:44.108Z,8.10
2022-08-17T08:41:35.526Z,7.20
2022-08-17T08:45:00.663Z,6.80
2022-08-17T08:47:27.998Z,7.40
2022-08-17T08:50:30.151Z,6.50
2022-08-17T08:54:05.558Z,6.70
2022-08-17T09:00:15.243Z,6.10
2022-08-17T09:06:00.934Z,6.80
2022-08-17T09:08:58.927Z,6.00
2022-08-17T09:12:02.339Z,5.40
2022-08-17T09:14:52.821Z,5.50
2022-08-17T09:20:29.321Z,5.80
2022-08-17T09:23:15.895Z,5.60
2022-08-17T09:26:00.456Z,5.50
2022-08-17T09:28:38.167Z,5.20
2022-08-17T09:31:41.877Z,6.10
2022-08-17T09:34:35.521Z,6.10
2022-08-17T09:37:19.990Z,5.10
2022-08-17T09:40:22.683Z,5.30
2022-08-17T09:43:22.762Z,5.70
2022-08-17T09:45:57.752Z,6.30
2022-08-17T09:48:55.610Z,5.70
2022-08-17T09:51:49.948Z,5.30
2022-08-17T09:54:38.995Z,5.50
2022-08-17T09:57:30.756Z,5.40
2022-08-17T10:00:57.686Z,5.80
2022-08-17T10:03:56.847Z,5.90
2022-08-17T10:06:33.947Z,5.50
2022-08-17T10:09:25.545Z,6.20
2022-08-17T10:12:30.179Z,5.70
2022-08-17T10:15:07.660Z,5.80
2022-08-17T10:18:08.538Z,5.90
2022-08-17T10:21:28.032Z,5.70
2022-08-17T10:25:21.588Z,6.20
2022-08-17T10:27:57.264Z,5.80
2022-08-17T10:30:31.559Z,5.60
2022-08-17T10:33:06.496Z,5.50
2022-08-17T10:36:00.618Z,6.80
2022-08-17T10:38:37.594Z,5.40
2022-08-17T10:41:27.555Z,5.80
2022-08-17T10:44:36.935Z,5.40
2022-08-17T10:47:27.356Z,5.50
2022-08-17T10:49:58.016Z,5.40
2022-08-17T10:52:31.666Z,5.50
2022-08-17T10:55:12.591Z,5.40
2022-08-17T10:57:46.770Z,5.70
2022-08-17T11:00:28.362Z,4.90
2022-08-17T11:03:02.616Z,5.20
2022-08-17T11:05:34.077Z,5.10
2022-08-17T11:08:21.149Z,5.20
2022-08-17T11:11:13.311Z,5.70
2022-08-17T11:13:57.004Z,5.50
2022-08-17T11:17:05.156Z,5.80
2022-08-17T11:19:58.041Z,6.00
2022-08-17T11:23:10.480Z,5.90
2022-08-17T11:25:51.729Z,5.70
2022-08-17T11:28:26.293Z,5.80
2022-08-17T11:31:01.958Z,5.60
2022-08-17T11:33:36.716Z,6.10
2022-08-17T11:36:35.242Z,6.10
2022-08-17T11:39:29.838Z,5.50
2022-08-17T11:42:17.790Z,5.90
2022-08-17T11:45:31.794Z,6.20
2022-08-17T11:48:47.785Z,5.70
2022-08-17T11:51:55.345Z,6.30
2022-08-17T11:54:51.746Z,6.30
2022-08-17T11:57:27.899Z,5.70
2022-08-17T12:00:13.622Z,5.70
2022-08-17T12:02:48.544Z,5.90
2022-08-17T12:05:23.256Z,5.80
2022-08-17T12:08:20.011Z,5.80
2022-08-17T12:10:59.893Z,6.40
2022-08-17T12:13:38.634Z,6.40
2022-08-17T12:16:17.025Z,5.90
2022-08-17T12:18:59.313Z,5.50
2022-08-17T12:22:09.961Z,5.70
2022-08-17T12:24:52.135Z,5.70
2022-08-17T12:28:04.424Z,5.80
2022-08-17T12:30:28.498Z,6.50
2022-08-17T12:33:31.080Z,5.70
2022-08-17T12:37:04.031Z,6.50
2022-08-17T12:40:16.070Z,5.80
2022-08-17T12:43:30.906Z,6.20
2022-08-17T12:46:14.958Z,6.60
2022-08-17T12:48:59.802Z,6.90
2022-08-17T12:52:08.285Z,6.10
2022-08-17T12:54:55.867Z,6.60
2022-08-17T12:58:14.745Z,6.10
2022-08-17T13:01:08.300Z,6.30
2022-08-17T13:04:29.641Z,6.00
2022-08-17T13:08:09.649Z,6.30
2022-08-17T13:11:19.264Z,6.20
2022-08-17T13:14:38.536Z,6.50
2022-08-17T13:17:51.928Z,5.90
2022-08-17T13:20:57.184Z,6.40
2022-08-17T13:24:51.923Z,6.30
2022-08-17T13:28:13.823Z,6.30
2022-08-17T13:32:05.091Z,7.00
2022-08-17T13:36:27.132Z,6.20
2022-08-17T13:40:01.434Z,6.90
2022-08-17T13:43:43.766Z,6.60
2022-08-17T13:46:28.085Z,7.10
2022-08-17T13:49:06.003Z,6.80
2022-08-17T13:51:44.434Z,7.10
2022-08-17T13:54:37.435Z,7.50
2022-08-17T13:57:50.250Z,6.80
2022-08-17T14:00:59.083Z,7.00
2022-08-17T14:03:44.355Z,6.00
2022-08-17T14:06:49.241Z,6.30
2022-08-17T14:09:24.841Z,6.60
2022-08-17T14:11:57.347Z,6.70
2022-08-17T14:14:29.573Z,6.20
2022-08-17T14:16:59.597Z,6.40
2022-08-17T14:19:29.477Z,6.70
2022-08-17T14:22:00.864Z,6.70
2022-08-17T14:24:44.992Z,6.70
2022-08-17T14:27:18.568Z,6.60
2022-08-17T14:29:49.376Z,7.30
2022-08-17T14:32:27.810Z,7.00
2022-08-17T14:35:02.573Z,7.00
2022-08-17T14:37:34.856Z,7.00
2022-08-17T14:40:10.008Z,7.60
2022-08-17T14:42:46.090Z,7.30
2022-08-17T14:45:32.395Z,6.80
2022-08-17T14:48:08.015Z,7.00
2022-08-17T14:50:44.467Z,7.20
2022-08-17T14:53:20.788Z,7.00
2022-08-17T14:55:56.930Z,6.50
2022-08-17T14:58:26.737Z,7.40
2022-08-17T15:00:58.044Z,6.90
2022-08-17T15:03:31.368Z,7.90
2022-08-17T15:06:16.356Z,7.00
2022-08-17T15:08:46.622Z,6.30
2022-08-17T15:11:17.479Z,7.20
2022-08-17T15:13:52.327Z,7.00
2022-08-17T15:16:24.146Z,6.70
2022-08-17T15:18:54.649Z,6.80
2022-08-17T15:21:25.630Z,7.40
2022-08-17T15:23:55.358Z,6.60
2022-08-17T15:26:26.488Z,7.50
2022-08-17T15:28:56.583Z,7.40
2022-08-17T15:31:32.382Z,7.60
2022-08-17T15:34:02.303Z,7.70
2022-08-17T15:36:37.441Z,7.30
2022-08-17T15:39:19.234Z,7.30
2022-08-17T15:41:58.056Z,7.70
2022-08-17T15:44:40.926Z,6.80
2022-08-17T15:47:10.362Z,7.60
2022-08-17T15:49:49.153Z,6.70
2022-08-17T15:52:51.297Z,7.10
2022-08-17T15:55:47.537Z,7.10
2022-08-17T16:03:14.863Z,7.20
2022-08-17T16:04:52.438Z,8.10
2022-08-17T16:07:26.780Z,7.80
2022-08-17T16:09:57.538Z,8.00
2022-08-17T16:12:32.644Z,7.70
2022-08-17T16:15:18.041Z,7.30
2022-08-17T16:18:39.412Z,7.90
2022-08-17T16:22:09.493Z,7.80
2022-08-17T16:25:38.362Z,7.50
2022-08-17T16:29:22.244Z,8.30
2022-08-17T16:33:06.747Z,7.50
2022-08-17T16:40:04.252Z,7.90
2022-08-17T16:42:49.802Z,7.70
2022-08-17T16:46:15.583Z,8.40
2022-08-17T16:49:37.291Z,7.80
2022-08-17T16:53:13.656Z,8.10
2022-08-17T16:56:39.342Z,8.50
2022-08-17T16:59:53.782Z,8.30
2022-08-17T17:03:18.983Z,7.90
2022-08-17T17:30:09.290Z,8.10
2022-08-17T17:33:25.726Z,8.10
2022-08-17T17:36:29.673Z,8.10
2022-08-17T17:39:53.891Z,7.70
2022-08-17T17:42:56.190Z,7.60
2022-08-17T17:45:52.540Z,7.90
2022-08-17T17:48:42.417Z,7.70
2022-08-17T17:52:08.810Z,7.80
2022-08-17T17:55:31.577Z,7.20
2022-08-17T17:58:30.426Z,7.90
2022-08-17T18:01:24.085Z,7.70
2022-08-17T18:05:11.192Z,8.20
2022-08-17T18:08:03.733Z,7.30
2022-08-17T18:14:40.012Z,8.10
2022-08-17T18:17:31.021Z,8.40
2022-08-17T18:20:55.859Z,8.70
2022-08-17T18:24:04.652Z,7.90
2022-08-17T18:27:29.313Z,8.20
2022-08-17T18:30:53.841Z,8.50
2022-08-17T18:34:45.537Z,8.60
2022-08-17T18:37:39.734Z,8.00
2022-08-17T18:41:11.791Z,8.50
2022-08-17T18:44:58.790Z,8.10
2022-08-17T18:48:17.325Z,8.20
2022-08-17T18:51:40.641Z,8.90
2022-08-17T18:55:11.779Z,8.60
2022-08-17T18:58:22.807Z,8.70
2022-08-17T19:01:54.681Z,8.70
2022-08-17T19:05:39.521Z,8.90
2022-08-17T19:08:54.960Z,8.80
2022-08-17T19:11:57.055Z,9.10
2022-08-17T19:15:35.577Z,9.90
2022-08-17T19:18:48.113Z,8.40
2022-08-17T19:22:21.411Z,9.40
2022-08-17T19:26:04.668Z,9.30
2022-08-17T19:33:09.295Z,9.00
2022-08-17T19:36:53.944Z,8.30
2022-08-17T19:40:53.512Z,8.80
2022-08-17T19:44:46.816Z,8.80
2022-08-17T19:48:46.389Z,8.70
2022-08-17T19:52:18.700Z,9.50
2022-08-17T19:56:01.659Z,9.60
2022-08-17T19:59:52.875Z,8.30
2022-08-17T20:03:29.148Z,7.80
2022-08-17T20:07:13.819Z,8.70
2022-08-17T20:11:00.587Z,9.30
2022-08-17T20:14:56.093Z,9.80
2022-08-17T20:26:19.629Z,8.90
2022-08-17T20:30:13.845Z,9.10
2022-08-17T20:34:05.791Z,9.00
2022-08-17T20:38:04.330Z,8.70
2022-08-17T20:41:43.054Z,9.00
2022-08-17T20:45:35.710Z,9.40
2022-08-17T20:49:31.158Z,9.20
2022-08-17T20:53:39.823Z,10.30
2022-08-17T20:57:48.064Z,9.30
2022-08-17T21:01:26.037Z,9.60
2022-08-17T21:05:30.310Z,9.40
2022-08-17T21:09:16.422Z,9.00
2022-08-17T21:13:24.455Z,9.40
2022-08-17T21:17:29.438Z,9.60
2022-08-17T21:21:16.900Z,9.20
2022-08-17T21:25:01.684Z,10.20
2022-08-17T21:29:00.338Z,10.20
2022-08-17T21:33:02.460Z,10.70
2022-08-17T21:36:53.003Z,10.60
2022-08-17T21:40:39.597Z,11.10
2022-08-17T21:44:12.391Z,10.90
2022-08-17T21:48:17.070Z,11.50
2022-08-17T21:52:27.890Z,11.50
2022-08-17T21:56:13.514Z,11.50
2022-08-17T21:59:50.701Z,10.80
2022-08-17T22:26:19.732Z,12.40
2022-08-17T22:30:24.559Z,11.60
2022-08-17T22:34:07.592Z,13.50
2022-08-17T22:38:20.095Z,11.90
2022-08-17T22:42:30.641Z,13.00
2022-08-17T22:46:23.135Z,11.50
2022-08-17T22:50:39.414Z,12.20
2022-08-17T22:54:29.537Z,11.40
2022-08-17T22:58:20.071Z,11.20
2022-08-17T23:02:24.843Z,11.50
2022-08-17T23:06:19.512Z,10.50
2022-08-17T23:10:12.493Z,11.30
2022-08-17T23:29:35.837Z,11.40
2022-08-17T23:33:27.804Z,11.20
2022-08-17T23:37:19.889Z,11.60
2022-08-17T23:41:14.138Z,11.70
2022-08-17T23:45:06.127Z,11.70
2022-08-17T23:52:46.092Z,11.30
2022-08-17T23:56:19.406Z,11.90
